createdAt,value
2022-10-06T00:04:01.084Z,7.55
2022-10-06T00:09:02.660Z,8.02
2022-10-06T00:14:04.385Z,7.82
2022-10-06T00:19:06.139Z,7.32
2022-10-06T00:24:07.722Z,7.57
2022-10-06T00:29:09.851Z,7.68
2022-10-06T00:34:11.460Z,6.95
2022-10-06T00:39:15.600Z,7.43
2022-10-06T00:44:17.618Z,7.13
2022-10-06T00:49:22.058Z,6.78
2022-10-06T00:54:24.985Z,7.53
2022-10-06T00:59:26.669Z,7.50
2022-10-06T01:04:35.366Z,7.60
2022-10-06T01:09:38.603Z,7.75
2022-10-06T01:14:41.527Z,7.22
2022-10-06T01:20:08.865Z,7.75
2022-10-06T01:25:13.707Z,7.68
2022-10-06T01:30:19.078Z,7.60
2022-10-06T01:35:20.952Z,8.00
2022-10-06T01:40:22.586Z,7.22
2022-10-06T01:45:24.200Z,7.60
2022-10-06T01:50:27.034Z,7.47
2022-10-06T01:55:31.370Z,7.70
2022-10-06T02:00:34.423Z,7.50
2022-10-06T02:05:36.045Z,6.88
2022-10-06T02:10:40.165Z,7.20
2022-10-06T02:15:49.440Z,7.10
2022-10-06T02:20:51.126Z,6.88
2022-10-06T02:26:07.143Z,7.20
2022-10-06T02:31:10.799Z,6.68
2022-10-06T02:36:15.894Z,6.25
2022-10-06T02:41:18.018Z,6.38
2022-10-06T02:46:20.957Z,7.30
2022-10-06T02:51:25.403Z,6.75
2022-10-06T02:56:27.574Z,6.38
2022-10-06T03:01:29.708Z,7.13
2022-10-06T03:06:34.656Z,6.57
2022-10-06T03:11:43.846Z,7.15
2022-10-06T03:16:51.935Z,6.90
2022-10-06T03:22:00.302Z,7.30
2022-10-06T03:27:11.527Z,6.60
2022-10-06T03:32:13.529Z,6.85
2022-10-06T03:37:15.525Z,7.05
2022-10-06T03:42:17.201Z,6.63
2022-10-06T03:47:20.328Z,6.95
2022-10-06T03:52:25.856Z,6.78
2022-10-06T03:57:30.528Z,6.95
2022-10-06T04:02:32.506Z,6.32
2022-10-06T04:07:34.572Z,6.18
2022-10-06T04:12:41.040Z,7.22
2022-10-06T04:17:42.686Z,6.78
2022-10-06T04:22:45.498Z,7.00
2022-10-06T04:27:48.661Z,7.22
2022-10-06T04:32:51.154Z,6.70
2022-10-06T04:37:56.695Z,7.05
2022-10-06T04:42:58.299Z,6.80
2022-10-06T04:48:00.766Z,7.20
2022-10-06T04:53:02.406Z,7.40
2022-10-06T04:58:04.140Z,7.05
2022-10-06T05:03:05.948Z,7.80
2022-10-06T05:08:10.219Z,7.38
2022-10-06T05:13:13.663Z,7.30
2022-10-06T05:18:15.644Z,7.88
2022-10-06T05:23:18.809Z,8.43
2022-10-06T05:28:22.671Z,7.47
2022-10-06T05:33:26.942Z,7.18
2022-10-06T05:38:29.338Z,7.72
2022-10-06T05:43:31.934Z,7.90
2022-10-06T05:48:33.980Z,8.23
2022-10-06T05:53:37.412Z,7.85
2022-10-06T05:58:44.451Z,8.05
2022-10-06T06:03:51.243Z,8.07
2022-10-06T06:09:00.457Z,7.78
2022-10-06T06:14:07.653Z,8.32
2022-10-06T06:19:11.287Z,7.60
2022-10-06T06:24:15.314Z,7.55
2022-10-06T06:29:19.443Z,4.00
2022-10-06T06:34:27.007Z,3.10
2022-10-06T06:39:29.247Z,3.00
2022-10-06T06:44:32.083Z,2.95
2022-10-06T06:49:38.188Z,3.05
2022-10-06T06:54:42.782Z,3.47
2022-10-06T06:59:48.309Z,3.42
2022-10-06T07:04:51.557Z,3.20
2022-10-06T07:09:55.017Z,4.03
2022-10-06T07:15:17.215Z,3.05
2022-10-06T07:20:44.480Z,3.40
2022-10-06T07:25:46.194Z,3.50
2022-10-06T07:30:48.812Z,3.70
2022-10-06T07:35:55.204Z,3.72
2022-10-06T07:41:18.257Z,3.55
2022-10-06T07:46:24.605Z,3.60
2022-10-06T07:51:46.531Z,3.78
2022-10-06T07:56:48.520Z,3.08
2022-10-06T08:01:52.570Z,3.13
2022-10-06T08:06:58.501Z,3.65
2022-10-06T08:12:20.031Z,4.07
2022-10-06T08:17:21.633Z,4.15
2022-10-06T08:22:27.360Z,4.53
2022-10-06T08:27:29.414Z,4.50
2022-10-06T08:32:32.194Z,5.10
2022-10-06T08:37:33.810Z,5.88
2022-10-06T08:42:46.053Z,5.72
2022-10-06T08:47:55.527Z,6.10
2022-10-06T08:53:14.137Z,6.15
2022-10-06T08:58:47.141Z,6.38
2022-10-06T09:03:51.963Z,6.93
2022-10-06T09:09:07.343Z,6.32
2022-10-06T09:14:17.622Z,7.20
2022-10-06T09:19:32.910Z,7.05
2022-10-06T09:24:47.076Z,7.90
2022-10-06T09:29:50.312Z,8.40
2022-10-06T09:34:59.608Z,9.13
2022-10-06T09:40:01.183Z,8.95
2022-10-06T09:45:23.805Z,8.90
2022-10-06T09:50:27.909Z,9.30
2022-10-06T09:55:43.329Z,9.98
2022-10-06T10:00:53.720Z,8.95
2022-10-06T10:05:55.447Z,10.48
2022-10-06T10:11:27.689Z,11.07
2022-10-06T10:16:35.065Z,11.48
2022-10-06T10:21:37.184Z,11.75
2022-10-06T10:26:57.129Z,12.32
2022-10-06T10:32:07.675Z,11.52
2022-10-06T10:37:12.299Z,12.07
2022-10-06T10:42:32.484Z,11.82
2022-10-06T10:47:34.237Z,12.90
2022-10-06T10:52:41.616Z,13.35
2022-10-06T10:57:46.044Z,13.20
2022-10-06T11:02:47.967Z,13.98
2022-10-06T11:08:06.354Z,13.95
2022-10-06T11:13:29.545Z,14.25
2022-10-06T11:18:35.435Z,13.80
2022-10-06T11:23:44.364Z,13.65
2022-10-06T11:28:59.889Z,14.07
2022-10-06T11:34:03.494Z,14.75
2022-10-06T11:39:23.881Z,14.18
2022-10-06T11:44:35.037Z,13.98
2022-10-06T11:49:49.757Z,14.20
2022-10-06T11:55:11.442Z,13.93
2022-10-06T12:00:16.067Z,13.75
2022-10-06T12:05:54.669Z,14.25
2022-10-06T12:10:51.563Z,13.95
2022-10-06T12:21:37.436Z,14.30
2022-10-06T12:27:25.770Z,14.65
2022-10-06T12:32:42.401Z,15.88
2022-10-06T12:37:53.917Z,14.85
2022-10-06T12:43:25.349Z,14.10
2022-10-06T12:48:30.245Z,14.25
2022-10-06T12:53:39.264Z,14.45
2022-10-06T12:58:42.039Z,14.30
2022-10-06T13:03:48.525Z,14.20
2022-10-06T13:09:14.929Z,14.27
2022-10-06T13:14:16.538Z,15.45
2022-10-06T13:19:29.503Z,14.70
2022-10-06T13:24:31.166Z,14.63
2022-10-06T13:29:32.827Z,14.35
2022-10-06T13:34:41.988Z,14.63
2022-10-06T13:39:43.608Z,14.88
2022-10-06T13:44:59.360Z,14.77
2022-10-06T13:50:06.994Z,15.02
2022-10-06T13:55:28.667Z,15.38
2022-10-06T14:00:32.943Z,15.23
2022-10-06T14:05:44.626Z,14.65
2022-10-06T14:11:12.516Z,14.40
2022-10-06T14:16:25.239Z,14.48
2022-10-06T14:21:36.821Z,14.82
2022-10-06T14:26:39.791Z,14.32
2022-10-06T14:31:41.402Z,15.05
2022-10-06T14:36:45.964Z,14.90
2022-10-06T14:41:47.596Z,14.13
2022-10-06T14:46:49.592Z,14.40
2022-10-06T14:51:53.786Z,14.50
2022-10-06T14:56:56.008Z,13.95
2022-10-06T15:01:57.560Z,14.48
2022-10-06T15:07:17.877Z,14.68
2022-10-06T15:12:19.425Z,13.98
2022-10-06T15:17:20.993Z,14.10
2022-10-06T15:22:22.678Z,14.05
2022-10-06T15:27:43.215Z,13.82
2022-10-06T15:32:44.752Z,14.10
2022-10-06T15:37:46.306Z,14.15
2022-10-06T15:42:50.112Z,12.70
2022-10-06T15:47:52.278Z,12.90
2022-10-06T15:52:53.839Z,11.85
2022-10-06T15:57:55.755Z,10.85
2022-10-06T16:02:57.378Z,10.68
2022-10-06T16:07:59.003Z,9.90
2022-10-06T16:13:00.635Z,8.52
2022-10-06T16:18:02.175Z,8.52
2022-10-06T16:23:03.761Z,8.07
2022-10-06T16:28:05.444Z,8.52
2022-10-06T16:33:07.082Z,8.00
2022-10-06T16:38:08.746Z,6.60
2022-10-06T16:43:10.292Z,7.22
2022-10-06T16:48:11.989Z,6.88
2022-10-06T16:53:16.813Z,8.32
2022-10-06T16:58:18.586Z,7.50
2022-10-06T17:03:20.249Z,7.00
2022-10-06T17:08:23.527Z,7.63
2022-10-06T17:13:25.074Z,8.93
2022-10-06T17:18:27.683Z,7.80
2022-10-06T17:23:30.295Z,6.85
2022-10-06T17:28:33.047Z,8.07
2022-10-06T17:33:38.733Z,8.02
2022-10-06T17:38:47.447Z,9.18
2022-10-06T17:43:50.577Z,9.63
2022-10-06T17:48:54.780Z,9.45
2022-10-06T17:53:58.289Z,10.13
2022-10-06T17:59:07.851Z,9.63
2022-10-06T18:04:16.889Z,7.78
2022-10-06T18:09:18.863Z,8.15
2022-10-06T18:14:22.150Z,7.57
2022-10-06T18:19:27.215Z,6.85
2022-10-06T18:24:31.013Z,6.95
2022-10-06T18:29:35.516Z,6.47
2022-10-06T18:40:08.881Z,6.30
2022-10-06T18:45:32.215Z,7.70
2022-10-06T18:50:35.921Z,8.00
2022-10-06T18:55:37.483Z,7.50
2022-10-06T19:00:39.507Z,7.80
2022-10-06T19:05:51.101Z,8.77
2022-10-06T19:11:13.931Z,9.88
2022-10-06T19:16:19.198Z,9.20
2022-10-06T19:21:21.045Z,9.65
2022-10-06T19:26:22.753Z,8.57
2022-10-06T19:31:24.440Z,7.00
2022-10-06T19:36:29.632Z,7.72
2022-10-06T19:41:49.658Z,7.57
2022-10-06T19:46:51.665Z,8.65
2022-10-06T19:51:54.687Z,9.30
2022-10-06T19:56:56.877Z,10.95
2022-10-06T20:01:58.485Z,9.23
2022-10-06T20:07:01.802Z,8.68
2022-10-06T20:12:03.695Z,8.48
2022-10-06T20:17:05.884Z,8.50
2022-10-06T20:22:07.595Z,8.20
2022-10-06T20:27:10.229Z,8.10
2022-10-06T20:32:11.921Z,9.05
2022-10-06T20:37:13.503Z,8.68
2022-10-06T20:42:15.681Z,7.97
2022-10-06T20:47:17.323Z,8.00
2022-10-06T20:52:18.938Z,8.85
2022-10-06T20:57:20.558Z,8.40
2022-10-06T21:02:25.051Z,8.18
2022-10-06T21:07:26.832Z,8.80
2022-10-06T21:12:28.580Z,8.48
2022-10-06T21:17:30.142Z,9.60
2022-10-06T21:22:31.717Z,9.55
2022-10-06T21:27:33.302Z,9.32
2022-10-06T21:32:34.873Z,8.50
2022-10-06T21:37:36.468Z,9.32
2022-10-06T21:42:38.096Z,8.98
2022-10-06T21:47:39.662Z,8.48
2022-10-06T21:52:41.279Z,7.97
2022-10-06T21:57:45.824Z,9.05
2022-10-06T22:02:47.765Z,8.75
2022-10-06T22:07:49.433Z,8.20
2022-10-06T22:12:51.102Z,10.38
2022-10-06T22:17:52.767Z,8.13
2022-10-06T22:22:54.349Z,8.38
2022-10-06T22:27:55.904Z,8.48
2022-10-06T22:32:57.555Z,9.23
2022-10-06T22:37:59.143Z,8.38
2022-10-06T22:43:00.735Z,8.40
2022-10-06T22:48:02.317Z,9.63
2022-10-06T22:53:03.995Z,8.40
2022-10-06T22:58:05.627Z,8.70
2022-10-06T23:03:07.838Z,8.55
2022-10-06T23:08:09.506Z,9.45
2022-10-06T23:13:11.104Z,9.23
2022-10-06T23:18:13.591Z,10.13
2022-10-06T23:23:15.314Z,8.68
2022-10-06T23:28:16.944Z,8.10
2022-10-06T23:33:18.623Z,8.95
2022-10-06T23:38:20.197Z,8.55
2022-10-06T23:43:23.057Z,8.73
2022-10-06T23:48:24.742Z,8.45
2022-10-06T23:53:27.092Z,8.95
2022-10-06T23:58:28.961Z,8.98
